Impacts TAF Board
For situational awareness. Not to be used for flight planning purposes.
IDs:

KDUJ - Du Bois Rgnl, PA, US

Issued at 1723 UTC 02 Oct 2022
Updated at 2037 UTC 02 Oct 2022
Potential Impact None Slight Moderate High
Time1953Z 02/21Z 02/22Z 02/23Z 03/00Z 03/01Z 03/02Z 03/03Z 03/04Z 03/05Z 03/06Z 03/07Z 03/08Z 03/09Z>>
Type OBS PRVL PRVL PRVL PRVL PRVL PRVL PRVL PRVL PRVL PRVL PRVL PRVL PRVL
VIS 10 >6 >6 >6 >6 >6 >6 >6 >6 >6 >6 >6 >6 >6
CIG -- 120 120 -- -- -- -- -- -- -- -- -- -- --
Cover FEW BKN BKN SCT SCT SCT SCT SCT SCT SCT SCT SCT SCT SCT
FltCat VFR VFR VFR VFR VFR VFR VFR VFR VFR VFR VFR VFR VFR VFR
WX -- -- -- -- -- -- -- -- -- -- -- -- -- --
WDir 20 50 50 50 50 50 50 50 50 50 50 50 50 50
WSpd 9 9 9 6 6 6 6 6 6 6 6 6 6 6
WGst -- 18 18 -- -- -- -- -- -- -- -- -- -- --
WSHgt -- -- -- -- -- -- -- -- -- -- -- -- -- --
WSDir -- -- -- -- -- -- -- -- -- -- -- -- -- --
WSSpd -- -- -- -- -- -- -- -- -- -- -- -- -- --
Raw TAF
KDUJ 021723Z 0218/0318 05009G18KT P6SM BKN120
  FM022300 05006KT P6SM SCT250


Raw METAR
KDUJ 021953Z AUTO 02009KT 10SM FEW039 17/08 A3016 RMK AO2 SLP211 T01720078
KDUJ 021853Z AUTO 02010KT 10SM CLR 17/08 A3015 RMK AO2 SLP206 T01720078
KDUJ 021753Z AUTO 04011G15KT 10SM CLR 17/07 A3015 RMK AO2 SLP209 60000 T01670072 10167 20106 51005

METAR Board
Radar Display
Forecast Discussion
For situational awareness. Not to be used for flight planning purposes.